An Nasiriyah, Iraq
Current Conditions -  °F | °C
As of 8:00 AM on Sunday 26 Oct 2014 (Local Time) from ORMM Reporting Station
Clear Clear  
Wind Chill: 72°   Ceiling: Unl
Heat Index: 72°   Visibility: 6mi
Dew Point: 52°   Wind: 12mph
Humidity: 50%   Direction: 300°WNW
Pressure: 29.97"   Gusts: NA
Location:  31.04°N, 46.26°E
Report Text: ORMM 260500Z 30010KT CAVOK 22/11 Q1015 NOSIG
Loading
Personal Weather Stations






























Interactive Weather Map New forecast layout! Learn more

10-Day Weather Forecast

Advertisements
Track Severe Weather on mobile